sensor_id;sensor_type;location;lat;lon;timestamp;P1;durP1;ratioP1;P2;durP2;ratioP2
4533;SDS011;2279;51.448;7.306;2024-02-14T00:02:09;230.23;;;63.60;;
4533;SDS011;2279;51.448;7.306;2024-02-14T00:04:35;232.23;;;65.53;;
4533;SDS011;2279;51.448;7.306;2024-02-14T00:07:01;231.00;;;63.73;;
4533;SDS011;2279;51.448;7.306;2024-02-14T00:09:26;232.02;;;65.18;;
4533;SDS011;2279;51.448;7.306;2024-02-14T00:11:52;233.17;;;66.30;;
4533;SDS011;2279;51.448;7.306;2024-02-14T00:14:18;232.03;;;64.80;;
4533;SDS011;2279;51.448;7.306;2024-02-14T00:16:45;235.18;;;66.57;;
4533;SDS011;2279;51.448;7.306;2024-02-14T00:19:11;230.65;;;63.60;;
4533;SDS011;2279;51.448;7.306;2024-02-14T00:21:37;232.15;;;65.05;;
4533;SDS011;2279;51.448;7.306;2024-02-14T00:24:04;232.05;;;65.40;;
4533;SDS011;2279;51.448;7.306;2024-02-14T00:26:30;232.07;;;66.40;;
4533;SDS011;2279;51.448;7.306;2024-02-14T00:28:57;231.43;;;65.38;;
4533;SDS011;2279;51.448;7.306;2024-02-14T00:31:23;231.38;;;66.47;;
4533;SDS011;2279;51.448;7.306;2024-02-14T00:33:48;236.20;;;69.43;;
4533;SDS011;2279;51.448;7.306;2024-02-14T00:36:16;230.90;;;65.10;;
4533;SDS011;2279;51.448;7.306;2024-02-14T00:38:42;229.48;;;63.75;;
4533;SDS011;2279;51.448;7.306;2024-02-14T00:41:10;229.37;;;65.83;;
4533;SDS011;2279;51.448;7.306;2024-02-14T00:43:36;228.40;;;63.13;;
4533;SDS011;2279;51.448;7.306;2024-02-14T00:46:02;231.03;;;65.40;;
4533;SDS011;2279;51.448;7.306;2024-02-14T00:48:28;230.32;;;65.28;;
4533;SDS011;2279;51.448;7.306;2024-02-14T00:50:54;231.80;;;66.65;;
4533;SDS011;2279;51.448;7.306;2024-02-14T00:53:20;232.23;;;65.27;;
4533;SDS011;2279;51.448;7.306;2024-02-14T00:55:46;229.13;;;64.00;;
4533;SDS011;2279;51.448;7.306;2024-02-14T00:58:12;232.93;;;64.95;;
4533;SDS011;2279;51.448;7.306;2024-02-14T01:00:38;225.97;;;60.60;;
4533;SDS011;2279;51.448;7.306;2024-02-14T01:03:04;228.07;;;62.55;;
4533;SDS011;2279;51.448;7.306;2024-02-14T01:05:33;227.57;;;61.92;;
4533;SDS011;2279;51.448;7.306;2024-02-14T01:07:58;228.47;;;62.50;;
4533;SDS011;2279;51.448;7.306;2024-02-14T01:10:25;228.15;;;61.63;;
4533;SDS011;2279;51.448;7.306;2024-02-14T01:12:51;225.57;;;58.07;;
4533;SDS011;2279;51.448;7.306;2024-02-14T01:15:17;228.17;;;60.20;;
4533;SDS011;2279;51.448;7.306;2024-02-14T01:17:43;225.73;;;57.47;;
4533;SDS011;2279;51.448;7.306;2024-02-14T01:20:09;227.32;;;58.25;;
4533;SDS011;2279;51.448;7.306;2024-02-14T01:22:35;224.60;;;56.45;;
4533;SDS011;2279;51.448;7.306;2024-02-14T01:25:02;224.20;;;57.88;;
4533;SDS011;2279;51.448;7.306;2024-02-14T01:27:29;229.50;;;58.90;;
4533;SDS011;2279;51.448;7.306;2024-02-14T01:29:55;226.57;;;58.27;;
4533;SDS011;2279;51.448;7.306;2024-02-14T01:32:22;225.05;;;56.45;;
4533;SDS011;2279;51.448;7.306;2024-02-14T01:34:48;225.85;;;57.53;;
4533;SDS011;2279;51.448;7.306;2024-02-14T01:37:14;226.65;;;58.17;;
4533;SDS011;2279;51.448;7.306;2024-02-14T01:39:40;226.75;;;57.17;;
4533;SDS011;2279;51.448;7.306;2024-02-14T01:42:06;223.77;;;56.57;;
4533;SDS011;2279;51.448;7.306;2024-02-14T01:44:33;225.57;;;56.28;;
4533;SDS011;2279;51.448;7.306;2024-02-14T01:46:59;228.02;;;59.08;;
4533;SDS011;2279;51.448;7.306;2024-02-14T01:49:26;225.70;;;56.33;;
4533;SDS011;2279;51.448;7.306;2024-02-14T01:51:53;226.50;;;58.10;;
4533;SDS011;2279;51.448;7.306;2024-02-14T01:54:20;226.02;;;57.28;;
4533;SDS011;2279;51.448;7.306;2024-02-14T01:56:46;225.73;;;56.37;;
4533;SDS011;2279;51.448;7.306;2024-02-14T01:59:14;225.93;;;58.15;;
4533;SDS011;2279;51.448;7.306;2024-02-14T02:01:41;226.32;;;58.20;;
4533;SDS011;2279;51.448;7.306;2024-02-14T02:04:07;226.00;;;57.20;;
4533;SDS011;2279;51.448;7.306;2024-02-14T02:06:33;227.80;;;58.33;;
4533;SDS011;2279;51.448;7.306;2024-02-14T02:09:01;225.38;;;57.85;;
4533;SDS011;2279;51.448;7.306;2024-02-14T02:11:27;226.82;;;57.80;;
4533;SDS011;2279;51.448;7.306;2024-02-14T02:13:53;224.13;;;56.93;;
4533;SDS011;2279;51.448;7.306;2024-02-14T02:16:20;225.25;;;56.97;;
4533;SDS011;2279;51.448;7.306;2024-02-14T02:18:46;226.85;;;58.17;;
4533;SDS011;2279;51.448;7.306;2024-02-14T02:21:14;227.68;;;59.00;;
4533;SDS011;2279;51.448;7.306;2024-02-14T02:23:40;228.05;;;59.45;;
4533;SDS011;2279;51.448;7.306;2024-02-14T02:26:09;226.48;;;58.22;;
4533;SDS011;2279;51.448;7.306;2024-02-14T02:28:36;227.77;;;59.08;;
4533;SDS011;2279;51.448;7.306;2024-02-14T02:31:05;225.35;;;58.33;;
4533;SDS011;2279;51.448;7.306;2024-02-14T02:33:30;225.82;;;57.90;;
4533;SDS011;2279;51.448;7.306;2024-02-14T02:35:57;227.55;;;58.85;;
4533;SDS011;2279;51.448;7.306;2024-02-14T02:38:23;228.97;;;59.40;;
4533;SDS011;2279;51.448;7.306;2024-02-14T02:40:49;227.43;;;59.20;;
4533;SDS011;2279;51.448;7.306;2024-02-14T02:43:15;227.60;;;59.63;;
4533;SDS011;2279;51.448;7.306;2024-02-14T02:45:41;227.83;;;58.90;;
4533;SDS011;2279;51.448;7.306;2024-02-14T02:48:07;227.35;;;59.45;;
4533;SDS011;2279;51.448;7.306;2024-02-14T02:50:33;227.75;;;58.92;;
4533;SDS011;2279;51.448;7.306;2024-02-14T02:52:59;229.17;;;61.70;;
4533;SDS011;2279;51.448;7.306;2024-02-14T02:55:25;226.00;;;59.58;;
4533;SDS011;2279;51.448;7.306;2024-02-14T02:57:51;227.25;;;59.78;;
4533;SDS011;2279;51.448;7.306;2024-02-14T03:00:18;228.02;;;59.20;;
4533;SDS011;2279;51.448;7.306;2024-02-14T03:02:46;228.60;;;60.35;;
4533;SDS011;2279;51.448;7.306;2024-02-14T03:05:12;233.37;;;63.90;;
4533;SDS011;2279;51.448;7.306;2024-02-14T03:07:45;229.73;;;60.67;;
4533;SDS011;2279;51.448;7.306;2024-02-14T03:10:12;226.85;;;59.42;;
4533;SDS011;2279;51.448;7.306;2024-02-14T03:12:39;227.18;;;58.60;;
4533;SDS011;2279;51.448;7.306;2024-02-14T03:15:05;232.70;;;62.45;;
4533;SDS011;2279;51.448;7.306;2024-02-14T03:17:35;229.95;;;60.60;;
4533;SDS011;2279;51.448;7.306;2024-02-14T03:20:01;229.57;;;60.17;;
4533;SDS011;2279;51.448;7.306;2024-02-14T03:22:27;227.40;;;59.53;;
4533;SDS011;2279;51.448;7.306;2024-02-14T03:24:53;229.70;;;60.53;;
4533;SDS011;2279;51.448;7.306;2024-02-14T03:27:19;228.57;;;60.63;;
4533;SDS011;2279;51.448;7.306;2024-02-14T03:29:48;230.20;;;60.67;;
4533;SDS011;2279;51.448;7.306;2024-02-14T03:32:15;228.77;;;60.13;;
4533;SDS011;2279;51.448;7.306;2024-02-14T03:34:42;230.95;;;61.85;;
4533;SDS011;2279;51.448;7.306;2024-02-14T03:37:08;225.47;;;58.27;;
4533;SDS011;2279;51.448;7.306;2024-02-14T03:39:34;229.47;;;59.57;;
4533;SDS011;2279;51.448;7.306;2024-02-14T03:42:00;227.60;;;59.20;;
4533;SDS011;2279;51.448;7.306;2024-02-14T03:44:28;228.18;;;59.20;;
4533;SDS011;2279;51.448;7.306;2024-02-14T03:46:53;228.07;;;58.63;;
4533;SDS011;2279;51.448;7.306;2024-02-14T03:49:19;226.55;;;58.97;;
4533;SDS011;2279;51.448;7.306;2024-02-14T03:51:46;229.32;;;59.30;;
4533;SDS011;2279;51.448;7.306;2024-02-14T03:54:13;229.02;;;59.30;;
4533;SDS011;2279;51.448;7.306;2024-02-14T03:56:39;229.00;;;59.37;;
4533;SDS011;2279;51.448;7.306;2024-02-14T03:59:05;229.43;;;58.65;;
4533;SDS011;2279;51.448;7.306;2024-02-14T04:01:32;227.18;;;56.78;;
4533;SDS011;2279;51.448;7.306;2024-02-14T04:03:58;229.48;;;58.67;;
4533;SDS011;2279;51.448;7.306;2024-02-14T04:06:25;228.70;;;58.88;;
4533;SDS011;2279;51.448;7.306;2024-02-14T04:08:51;228.63;;;58.38;;
4533;SDS011;2279;51.448;7.306;2024-02-14T04:11:17;229.17;;;58.47;;
4533;SDS011;2279;51.448;7.306;2024-02-14T04:13:43;227.13;;;57.00;;
4533;SDS011;2279;51.448;7.306;2024-02-14T04:16:09;225.30;;;55.50;;
4533;SDS011;2279;51.448;7.306;2024-02-14T04:18:37;226.52;;;57.05;;
4533;SDS011;2279;51.448;7.306;2024-02-14T04:21:03;223.57;;;56.10;;
4533;SDS011;2279;51.448;7.306;2024-02-14T04:23:30;227.38;;;57.05;;
4533;SDS011;2279;51.448;7.306;2024-02-14T04:25:57;225.98;;;55.95;;
4533;SDS011;2279;51.448;7.306;2024-02-14T04:28:23;228.63;;;57.38;;
4533;SDS011;2279;51.448;7.306;2024-02-14T04:30:49;224.57;;;55.87;;
4533;SDS011;2279;51.448;7.306;2024-02-14T04:33:15;227.47;;;56.87;;
4533;SDS011;2279;51.448;7.306;2024-02-14T04:35:42;226.50;;;56.28;;
4533;SDS011;2279;51.448;7.306;2024-02-14T04:38:08;226.37;;;56.00;;
4533;SDS011;2279;51.448;7.306;2024-02-14T04:40:33;227.50;;;58.00;;
4533;SDS011;2279;51.448;7.306;2024-02-14T04:42:59;227.30;;;56.40;;
4533;SDS011;2279;51.448;7.306;2024-02-14T04:45:25;227.70;;;57.05;;
4533;SDS011;2279;51.448;7.306;2024-02-14T04:47:51;224.83;;;55.70;;
4533;SDS011;2279;51.448;7.306;2024-02-14T04:50:17;227.63;;;57.03;;
4533;SDS011;2279;51.448;7.306;2024-02-14T04:52:44;225.90;;;56.60;;
4533;SDS011;2279;51.448;7.306;2024-02-14T04:55:09;231.30;;;59.17;;
4533;SDS011;2279;51.448;7.306;2024-02-14T04:57:35;226.00;;;55.33;;
4533;SDS011;2279;51.448;7.306;2024-02-14T05:00:02;226.55;;;55.80;;
4533;SDS011;2279;51.448;7.306;2024-02-14T05:02:29;225.13;;;56.42;;
4533;SDS011;2279;51.448;7.306;2024-02-14T05:04:56;227.50;;;57.42;;
4533;SDS011;2279;51.448;7.306;2024-02-14T05:07:21;224.13;;;55.40;;
4533;SDS011;2279;51.448;7.306;2024-02-14T05:09:47;226.82;;;56.17;;
4533;SDS011;2279;51.448;7.306;2024-02-14T05:12:16;226.90;;;56.20;;
4533;SDS011;2279;51.448;7.306;2024-02-14T05:14:42;223.83;;;55.43;;
4533;SDS011;2279;51.448;7.306;2024-02-14T05:17:08;228.00;;;56.80;;
4533;SDS011;2279;51.448;7.306;2024-02-14T05:19:34;225.43;;;57.00;;
4533;SDS011;2279;51.448;7.306;2024-02-14T05:22:00;226.87;;;56.20;;
4533;SDS011;2279;51.448;7.306;2024-02-14T05:24:26;227.07;;;56.47;;
4533;SDS011;2279;51.448;7.306;2024-02-14T05:26:54;228.80;;;58.38;;
4533;SDS011;2279;51.448;7.306;2024-02-14T05:29:20;228.17;;;57.67;;
4533;SDS011;2279;51.448;7.306;2024-02-14T05:31:47;227.52;;;56.92;;
4533;SDS011;2279;51.448;7.306;2024-02-14T05:34:14;229.13;;;58.35;;
4533;SDS011;2279;51.448;7.306;2024-02-14T05:36:40;229.10;;;58.80;;
4533;SDS011;2279;51.448;7.306;2024-02-14T05:39:07;227.57;;;56.30;;
4533;SDS011;2279;51.448;7.306;2024-02-14T05:41:33;225.77;;;56.10;;
4533;SDS011;2279;51.448;7.306;2024-02-14T05:44:00;227.30;;;56.58;;
4533;SDS011;2279;51.448;7.306;2024-02-14T05:46:26;228.32;;;57.28;;
4533;SDS011;2279;51.448;7.306;2024-02-14T05:48:52;228.77;;;57.47;;
4533;SDS011;2279;51.448;7.306;2024-02-14T05:51:19;229.05;;;57.72;;
4533;SDS011;2279;51.448;7.306;2024-02-14T05:53:45;227.87;;;56.10;;
4533;SDS011;2279;51.448;7.306;2024-02-14T05:56:11;225.80;;;55.57;;
4533;SDS011;2279;51.448;7.306;2024-02-14T05:58:37;226.57;;;56.50;;
4533;SDS011;2279;51.448;7.306;2024-02-14T06:01:03;226.43;;;55.60;;
4533;SDS011;2279;51.448;7.306;2024-02-14T06:03:29;226.68;;;56.58;;
4533;SDS011;2279;51.448;7.306;2024-02-14T06:05:55;227.13;;;57.40;;
4533;SDS011;2279;51.448;7.306;2024-02-14T06:08:21;228.57;;;57.77;;
4533;SDS011;2279;51.448;7.306;2024-02-14T06:10:48;229.68;;;57.90;;
4533;SDS011;2279;51.448;7.306;2024-02-14T06:13:14;225.77;;;56.47;;
4533;SDS011;2279;51.448;7.306;2024-02-14T06:15:40;226.18;;;56.80;;
4533;SDS011;2279;51.448;7.306;2024-02-14T06:18:06;227.98;;;57.53;;
4533;SDS011;2279;51.448;7.306;2024-02-14T06:20:34;228.52;;;57.78;;
4533;SDS011;2279;51.448;7.306;2024-02-14T06:23:00;226.27;;;57.15;;
4533;SDS011;2279;51.448;7.306;2024-02-14T06:25:26;227.00;;;58.03;;
4533;SDS011;2279;51.448;7.306;2024-02-14T06:27:52;226.03;;;56.60;;
4533;SDS011;2279;51.448;7.306;2024-02-14T06:30:19;228.88;;;58.85;;
4533;SDS011;2279;51.448;7.306;2024-02-14T06:32:45;226.17;;;56.93;;
4533;SDS011;2279;51.448;7.306;2024-02-14T06:35:11;233.70;;;62.17;;
4533;SDS011;2279;51.448;7.306;2024-02-14T06:37:39;228.55;;;58.33;;
4533;SDS011;2279;51.448;7.306;2024-02-14T06:40:05;227.03;;;57.00;;
4533;SDS011;2279;51.448;7.306;2024-02-14T06:42:33;227.20;;;57.72;;
4533;SDS011;2279;51.448;7.306;2024-02-14T06:44:59;228.20;;;57.87;;
4533;SDS011;2279;51.448;7.306;2024-02-14T06:47:25;225.85;;;56.28;;
4533;SDS011;2279;51.448;7.306;2024-02-14T06:49:54;227.43;;;57.15;;
4533;SDS011;2279;51.448;7.306;2024-02-14T06:52:20;227.48;;;57.42;;
4533;SDS011;2279;51.448;7.306;2024-02-14T06:54:46;226.40;;;58.10;;
4533;SDS011;2279;51.448;7.306;2024-02-14T06:57:13;223.63;;;55.63;;
4533;SDS011;2279;51.448;7.306;2024-02-14T06:59:39;225.65;;;56.25;;
4533;SDS011;2279;51.448;7.306;2024-02-14T07:02:05;225.65;;;56.67;;
4533;SDS011;2279;51.448;7.306;2024-02-14T07:04:31;225.32;;;56.58;;
4533;SDS011;2279;51.448;7.306;2024-02-14T07:06:57;226.65;;;56.90;;
4533;SDS011;2279;51.448;7.306;2024-02-14T07:09:23;228.40;;;58.42;;
4533;SDS011;2279;51.448;7.306;2024-02-14T07:11:50;226.80;;;57.13;;
4533;SDS011;2279;51.448;7.306;2024-02-14T07:14:18;229.50;;;59.20;;
4533;SDS011;2279;51.448;7.306;2024-02-14T07:16:44;228.65;;;59.20;;
4533;SDS011;2279;51.448;7.306;2024-02-14T07:19:10;227.30;;;57.55;;
4533;SDS011;2279;51.448;7.306;2024-02-14T07:21:36;225.10;;;56.55;;
4533;SDS011;2279;51.448;7.306;2024-02-14T07:24:05;226.05;;;57.10;;
4533;SDS011;2279;51.448;7.306;2024-02-14T07:26:31;227.13;;;57.80;;
4533;SDS011;2279;51.448;7.306;2024-02-14T07:28:57;228.63;;;58.47;;
4533;SDS011;2279;51.448;7.306;2024-02-14T07:31:23;227.85;;;57.30;;
4533;SDS011;2279;51.448;7.306;2024-02-14T07:33:49;226.35;;;57.15;;
4533;SDS011;2279;51.448;7.306;2024-02-14T07:36:18;229.27;;;58.38;;
4533;SDS011;2279;51.448;7.306;2024-02-14T07:38:44;226.60;;;57.30;;
4533;SDS011;2279;51.448;7.306;2024-02-14T07:41:10;226.13;;;56.42;;
4533;SDS011;2279;51.448;7.306;2024-02-14T07:43:36;227.40;;;57.00;;
4533;SDS011;2279;51.448;7.306;2024-02-14T07:46:03;228.10;;;57.08;;
4533;SDS011;2279;51.448;7.306;2024-02-14T07:48:30;229.07;;;58.53;;
4533;SDS011;2279;51.448;7.306;2024-02-14T07:50:56;226.38;;;57.15;;
4533;SDS011;2279;51.448;7.306;2024-02-14T07:53:24;228.90;;;57.65;;
4533;SDS011;2279;51.448;7.306;2024-02-14T07:55:50;227.95;;;58.25;;
4533;SDS011;2279;51.448;7.306;2024-02-14T07:58:17;226.32;;;57.80;;
4533;SDS011;2279;51.448;7.306;2024-02-14T08:00:43;226.98;;;58.00;;
4533;SDS011;2279;51.448;7.306;2024-02-14T08:03:09;225.73;;;57.07;;
4533;SDS011;2279;51.448;7.306;2024-02-14T08:05:35;227.77;;;57.77;;
4533;SDS011;2279;51.448;7.306;2024-02-14T08:08:01;228.73;;;59.25;;
4533;SDS011;2279;51.448;7.306;2024-02-14T08:10:27;226.47;;;58.07;;
4533;SDS011;2279;51.448;7.306;2024-02-14T08:12:53;228.25;;;58.78;;
4533;SDS011;2279;51.448;7.306;2024-02-14T08:15:19;226.17;;;56.90;;
4533;SDS011;2279;51.448;7.306;2024-02-14T08:17:46;226.38;;;57.50;;
4533;SDS011;2279;51.448;7.306;2024-02-14T08:20:12;225.73;;;57.47;;
4533;SDS011;2279;51.448;7.306;2024-02-14T08:22:38;226.32;;;56.80;;
4533;SDS011;2279;51.448;7.306;2024-02-14T08:25:04;226.73;;;58.35;;
4533;SDS011;2279;51.448;7.306;2024-02-14T08:27:30;226.02;;;57.47;;
4533;SDS011;2279;51.448;7.306;2024-02-14T08:29:56;227.67;;;58.93;;
4533;SDS011;2279;51.448;7.306;2024-02-14T08:32:22;226.48;;;59.30;;
4533;SDS011;2279;51.448;7.306;2024-02-14T08:34:48;229.27;;;60.27;;
4533;SDS011;2279;51.448;7.306;2024-02-14T08:37:15;228.57;;;60.17;;
4533;SDS011;2279;51.448;7.306;2024-02-14T08:39:41;229.23;;;61.08;;
4533;SDS011;2279;51.448;7.306;2024-02-14T08:42:07;229.07;;;59.57;;
4533;SDS011;2279;51.448;7.306;2024-02-14T08:44:33;230.50;;;62.22;;
4533;SDS011;2279;51.448;7.306;2024-02-14T08:46:59;229.18;;;60.10;;
4533;SDS011;2279;51.448;7.306;2024-02-14T08:49:25;229.93;;;62.10;;
4533;SDS011;2279;51.448;7.306;2024-02-14T08:51:51;232.07;;;65.60;;
4533;SDS011;2279;51.448;7.306;2024-02-14T08:54:17;232.20;;;64.30;;
4533;SDS011;2279;51.448;7.306;2024-02-14T08:56:43;234.55;;;66.28;;
4533;SDS011;2279;51.448;7.306;2024-02-14T08:59:10;231.00;;;63.22;;
4533;SDS011;2279;51.448;7.306;2024-02-14T09:01:36;229.73;;;61.70;;
4533;SDS011;2279;51.448;7.306;2024-02-14T09:04:02;228.85;;;60.60;;
4533;SDS011;2279;51.448;7.306;2024-02-14T09:06:28;232.17;;;61.73;;
4533;SDS011;2279;51.448;7.306;2024-02-14T09:08:54;228.80;;;59.77;;
4533;SDS011;2279;51.448;7.306;2024-02-14T09:11:20;231.77;;;62.07;;
4533;SDS011;2279;51.448;7.306;2024-02-14T09:13:47;230.93;;;60.92;;
4533;SDS011;2279;51.448;7.306;2024-02-14T09:16:15;234.20;;;62.53;;
4533;SDS011;2279;51.448;7.306;2024-02-14T09:18:41;237.53;;;65.70;;
4533;SDS011;2279;51.448;7.306;2024-02-14T09:21:08;232.90;;;63.20;;
4533;SDS011;2279;51.448;7.306;2024-02-14T09:23:33;231.90;;;62.67;;
4533;SDS011;2279;51.448;7.306;2024-02-14T09:26:00;231.90;;;61.90;;
4533;SDS011;2279;51.448;7.306;2024-02-14T09:28:26;232.27;;;61.50;;
4533;SDS011;2279;51.448;7.306;2024-02-14T09:30:52;229.25;;;58.97;;
4533;SDS011;2279;51.448;7.306;2024-02-14T09:33:19;233.30;;;63.20;;
4533;SDS011;2279;51.448;7.306;2024-02-14T09:35:45;229.50;;;60.40;;
4533;SDS011;2279;51.448;7.306;2024-02-14T09:38:13;232.07;;;61.90;;
4533;SDS011;2279;51.448;7.306;2024-02-14T09:40:41;233.98;;;64.22;;
4533;SDS011;2279;51.448;7.306;2024-02-14T09:45:50;229.80;;;60.38;;
4533;SDS011;2279;51.448;7.306;2024-02-14T09:48:17;232.15;;;60.95;;
4533;SDS011;2279;51.448;7.306;2024-02-14T09:50:45;232.65;;;62.70;;
4533;SDS011;2279;51.448;7.306;2024-02-14T09:53:12;230.57;;;60.53;;
4533;SDS011;2279;51.448;7.306;2024-02-14T09:55:40;227.40;;;57.53;;
4533;SDS011;2279;51.448;7.306;2024-02-14T09:58:07;230.18;;;60.10;;
4533;SDS011;2279;51.448;7.306;2024-02-14T10:00:33;230.43;;;61.67;;
4533;SDS011;2279;51.448;7.306;2024-02-14T10:03:00;230.00;;;59.70;;
4533;SDS011;2279;51.448;7.306;2024-02-14T10:05:26;233.10;;;61.10;;
4533;SDS011;2279;51.448;7.306;2024-02-14T10:07:52;232.37;;;62.00;;
4533;SDS011;2279;51.448;7.306;2024-02-14T10:10:21;231.65;;;61.20;;
4533;SDS011;2279;51.448;7.306;2024-02-14T10:12:47;228.70;;;59.60;;
4533;SDS011;2279;51.448;7.306;2024-02-14T10:15:13;238.80;;;66.23;;
4533;SDS011;2279;51.448;7.306;2024-02-14T10:17:39;228.37;;;59.07;;
4533;SDS011;2279;51.448;7.306;2024-02-14T10:20:06;231.05;;;59.78;;
4533;SDS011;2279;51.448;7.306;2024-02-14T10:22:35;228.05;;;58.28;;
4533;SDS011;2279;51.448;7.306;2024-02-14T10:25:04;229.60;;;60.63;;
4533;SDS011;2279;51.448;7.306;2024-02-14T10:27:39;229.07;;;60.00;;
4533;SDS011;2279;51.448;7.306;2024-02-14T10:30:06;228.07;;;57.97;;
4533;SDS011;2279;51.448;7.306;2024-02-14T10:32:36;228.13;;;58.45;;
4533;SDS011;2279;51.448;7.306;2024-02-14T10:35:05;229.88;;;59.70;;
4533;SDS011;2279;51.448;7.306;2024-02-14T10:37:34;227.43;;;57.15;;
4533;SDS011;2279;51.448;7.306;2024-02-14T10:40:01;230.02;;;60.03;;
4533;SDS011;2279;51.448;7.306;2024-02-14T10:42:28;232.30;;;61.60;;
4533;SDS011;2279;51.448;7.306;2024-02-14T10:44:54;228.60;;;58.40;;
4533;SDS011;2279;51.448;7.306;2024-02-14T10:47:20;230.10;;;59.45;;
4533;SDS011;2279;51.448;7.306;2024-02-14T10:49:49;231.27;;;60.05;;
4533;SDS011;2279;51.448;7.306;2024-02-14T10:52:16;232.57;;;61.63;;
4533;SDS011;2279;51.448;7.306;2024-02-14T10:54:43;232.77;;;61.65;;
4533;SDS011;2279;51.448;7.306;2024-02-14T10:57:11;231.98;;;61.95;;
4533;SDS011;2279;51.448;7.306;2024-02-14T10:59:38;230.18;;;60.38;;
4533;SDS011;2279;51.448;7.306;2024-02-14T11:02:05;229.50;;;61.35;;
4533;SDS011;2279;51.448;7.306;2024-02-14T11:04:31;227.98;;;58.42;;
4533;SDS011;2279;51.448;7.306;2024-02-14T11:06:58;228.10;;;60.35;;
4533;SDS011;2279;51.448;7.306;2024-02-14T11:09:33;230.10;;;60.17;;
4533;SDS011;2279;51.448;7.306;2024-02-14T11:12:01;229.98;;;61.30;;
4533;SDS011;2279;51.448;7.306;2024-02-14T11:14:31;229.95;;;59.67;;
4533;SDS011;2279;51.448;7.306;2024-02-14T11:17:10;231.75;;;64.13;;
4533;SDS011;2279;51.448;7.306;2024-02-14T11:19:36;229.68;;;61.85;;
4533;SDS011;2279;51.448;7.306;2024-02-14T11:22:11;230.52;;;61.70;;
4533;SDS011;2279;51.448;7.306;2024-02-14T11:24:40;233.05;;;62.13;;
4533;SDS011;2279;51.448;7.306;2024-02-14T11:27:10;231.00;;;61.90;;
4533;SDS011;2279;51.448;7.306;2024-02-14T11:29:50;230.73;;;61.95;;
4533;SDS011;2279;51.448;7.306;2024-02-14T11:32:17;232.98;;;63.60;;
4533;SDS011;2279;51.448;7.306;2024-02-14T11:34:43;231.68;;;62.85;;
4533;SDS011;2279;51.448;7.306;2024-02-14T11:37:09;230.82;;;63.33;;
4533;SDS011;2279;51.448;7.306;2024-02-14T11:39:35;231.70;;;63.30;;
4533;SDS011;2279;51.448;7.306;2024-02-14T11:42:02;230.50;;;62.60;;
4533;SDS011;2279;51.448;7.306;2024-02-14T11:44:29;233.13;;;64.35;;
4533;SDS011;2279;51.448;7.306;2024-02-14T11:46:55;231.57;;;63.37;;
4533;SDS011;2279;51.448;7.306;2024-02-14T11:49:21;235.98;;;66.00;;
4533;SDS011;2279;51.448;7.306;2024-02-14T11:51:47;233.27;;;65.00;;
4533;SDS011;2279;51.448;7.306;2024-02-14T11:54:13;229.23;;;61.07;;
4533;SDS011;2279;51.448;7.306;2024-02-14T11:56:40;232.30;;;62.90;;
4533;SDS011;2279;51.448;7.306;2024-02-14T11:59:06;235.30;;;65.07;;
4533;SDS011;2279;51.448;7.306;2024-02-14T12:01:34;231.65;;;61.67;;
4533;SDS011;2279;51.448;7.306;2024-02-14T12:04:01;231.15;;;62.00;;
4533;SDS011;2279;51.448;7.306;2024-02-14T12:06:29;231.55;;;61.85;;
4533;SDS011;2279;51.448;7.306;2024-02-14T12:09:01;230.80;;;61.22;;
4533;SDS011;2279;51.448;7.306;2024-02-14T12:11:33;234.10;;;62.85;;
4533;SDS011;2279;51.448;7.306;2024-02-14T12:14:02;229.50;;;60.30;;
4533;SDS011;2279;51.448;7.306;2024-02-14T12:16:28;233.40;;;63.75;;
4533;SDS011;2279;51.448;7.306;2024-02-14T12:19:03;234.18;;;64.45;;
4533;SDS011;2279;51.448;7.306;2024-02-14T12:21:40;232.60;;;62.70;;
4533;SDS011;2279;51.448;7.306;2024-02-14T12:24:08;233.20;;;62.72;;
4533;SDS011;2279;51.448;7.306;2024-02-14T12:26:35;232.57;;;62.45;;
4533;SDS011;2279;51.448;7.306;2024-02-14T12:29:04;231.82;;;62.20;;
4533;SDS011;2279;51.448;7.306;2024-02-14T12:31:33;235.93;;;64.88;;
4533;SDS011;2279;51.448;7.306;2024-02-14T12:34:00;232.60;;;64.43;;
4533;SDS011;2279;51.448;7.306;2024-02-14T12:36:30;235.50;;;66.47;;
4533;SDS011;2279;51.448;7.306;2024-02-14T12:38:56;237.13;;;67.18;;
4533;SDS011;2279;51.448;7.306;2024-02-14T12:41:22;234.52;;;63.85;;
4533;SDS011;2279;51.448;7.306;2024-02-14T12:43:52;234.77;;;64.43;;
4533;SDS011;2279;51.448;7.306;2024-02-14T12:46:18;237.32;;;67.70;;
4533;SDS011;2279;51.448;7.306;2024-02-14T12:48:44;235.02;;;66.35;;
4533;SDS011;2279;51.448;7.306;2024-02-14T12:51:10;233.43;;;61.47;;
4533;SDS011;2279;51.448;7.306;2024-02-14T12:53:38;234.55;;;63.33;;
4533;SDS011;2279;51.448;7.306;2024-02-14T12:56:04;237.07;;;64.10;;
4533;SDS011;2279;51.448;7.306;2024-02-14T12:58:31;238.48;;;66.18;;
4533;SDS011;2279;51.448;7.306;2024-02-14T13:00:57;237.77;;;65.32;;
4533;SDS011;2279;51.448;7.306;2024-02-14T13:03:25;235.45;;;63.63;;
4533;SDS011;2279;51.448;7.306;2024-02-14T13:05:51;234.73;;;62.65;;
4533;SDS011;2279;51.448;7.306;2024-02-14T13:08:18;237.70;;;65.47;;
4533;SDS011;2279;51.448;7.306;2024-02-14T13:10:46;236.10;;;64.07;;
4533;SDS011;2279;51.448;7.306;2024-02-14T13:13:12;233.25;;;60.88;;
4533;SDS011;2279;51.448;7.306;2024-02-14T13:15:39;233.93;;;62.67;;
4533;SDS011;2279;51.448;7.306;2024-02-14T13:18:05;234.15;;;62.58;;
4533;SDS011;2279;51.448;7.306;2024-02-14T13:20:31;234.88;;;63.90;;
4533;SDS011;2279;51.448;7.306;2024-02-14T13:22:58;235.07;;;64.43;;
4533;SDS011;2279;51.448;7.306;2024-02-14T13:25:24;234.60;;;62.83;;
4533;SDS011;2279;51.448;7.306;2024-02-14T13:27:51;236.70;;;65.78;;
4533;SDS011;2279;51.448;7.306;2024-02-14T13:30:17;234.05;;;62.50;;
4533;SDS011;2279;51.448;7.306;2024-02-14T13:32:43;234.95;;;64.53;;
4533;SDS011;2279;51.448;7.306;2024-02-14T13:35:09;237.20;;;67.07;;
4533;SDS011;2279;51.448;7.306;2024-02-14T13:37:38;231.68;;;61.90;;
4533;SDS011;2279;51.448;7.306;2024-02-14T13:40:04;239.97;;;68.00;;
4533;SDS011;2279;51.448;7.306;2024-02-14T13:42:34;235.13;;;64.05;;
4533;SDS011;2279;51.448;7.306;2024-02-14T13:45:00;240.63;;;69.13;;
4533;SDS011;2279;51.448;7.306;2024-02-14T13:47:26;233.07;;;63.10;;
4533;SDS011;2279;51.448;7.306;2024-02-14T13:49:52;235.83;;;65.57;;
4533;SDS011;2279;51.448;7.306;2024-02-14T13:52:18;232.03;;;61.73;;
4533;SDS011;2279;51.448;7.306;2024-02-14T13:54:45;233.93;;;64.93;;
4533;SDS011;2279;51.448;7.306;2024-02-14T13:57:13;232.52;;;64.13;;
4533;SDS011;2279;51.448;7.306;2024-02-14T13:59:38;230.63;;;60.43;;
4533;SDS011;2279;51.448;7.306;2024-02-14T14:02:04;234.03;;;65.10;;
4533;SDS011;2279;51.448;7.306;2024-02-14T14:04:30;234.17;;;63.53;;
4533;SDS011;2279;51.448;7.306;2024-02-14T14:06:56;230.83;;;59.80;;
4533;SDS011;2279;51.448;7.306;2024-02-14T14:09:23;233.55;;;62.03;;
4533;SDS011;2279;51.448;7.306;2024-02-14T14:11:50;233.00;;;63.22;;
4533;SDS011;2279;51.448;7.306;2024-02-14T14:14:17;232.73;;;64.22;;
4533;SDS011;2279;51.448;7.306;2024-02-14T14:16:44;236.43;;;63.65;;
4533;SDS011;2279;51.448;7.306;2024-02-14T14:19:10;231.20;;;60.08;;
4533;SDS011;2279;51.448;7.306;2024-02-14T14:21:36;236.30;;;63.00;;
4533;SDS011;2279;51.448;7.306;2024-02-14T14:24:03;238.93;;;67.28;;
4533;SDS011;2279;51.448;7.306;2024-02-14T14:26:29;237.60;;;68.32;;
4533;SDS011;2279;51.448;7.306;2024-02-14T14:28:55;232.77;;;64.23;;
4533;SDS011;2279;51.448;7.306;2024-02-14T14:31:21;239.80;;;68.47;;
4533;SDS011;2279;51.448;7.306;2024-02-14T14:33:47;230.97;;;60.87;;